Airfield :
LOGIN :

Register | Disclaimer

   EN    FR    IT 

 










Legend :    VFR   Marginal VFR   IFR   Intensive IFR   Very Intensive IFR
Visi :
Ceiling :
>= 8 km
>= 3000ft
5 to 8 km
1000 to 3000 ft
1500m to 5 km
500 to 1000 ft
800 to 1500m
200 to 500 ft
< 800m
< 200 ft
Symbols :   Thunderstorms  Fog  Heavy snow  Heavy precipitations  Wind > 20 kt
SIGMETs :     Misc.  Thunderstorms  Icing  Turbulence  Mountain Waves  Volcanic Ashes






- Airport Elevation : 645 ft
- IATA code : DLE


LFGJ - Dole Tavaux

CURRENT METAR :
  • 232330Z AUTO VRB03KT 0500 0450 R05/0550N FZFG VV/// M03/M03 Q1026

EXPIRED METARs :
  • 232300Z AUTO VRB03KT 0400 R05/0500N FZFG VV/// M02/M03 Q1026
  • 232230Z AUTO VRB01KT 0400 R05/0500N FZFG VV/// M02/M03 Q1026
  • 232200Z AUTO VRB02KT 0450 R05/0550N FZFG VV/// M03/M03 Q1026
  • 232130Z AUTO VRB02KT 0400 R05/0500N FZFG VV/// M02/M02 Q1026
  • 232100Z AUTO VRB02KT 0400 0350 R05/0500N FZFG VV/// M02/M02 Q1026

TAF AMD TAF LFGJ
Valid from the 23 at 17:00 until the 24 at 00:00 UTC


231700Z 2317/2324 VRB03KT 2000 BR OVC003
TEMPO 2317/2324 0600 FZFG VV///



MET'MAP, your aeronautical weather chart ! - Copyright ORBIFLY December 2007 - Disclaimer

ORBIFLY MET'MAP TEAM :

Programming & Development : Alexandra Zaïnal
Concept & original design : Baudouin d'Aumeries
Assistance for programming : Marc-Olivier Méhu
Technical & hardware support : Manuel Goepfert

Contact : metmap@orbifly.com




SOURCES & CREDITS :

   NOAA